sensor_id;sensor_type;location;lat;lon;timestamp;pressure;altitude;pressure_sealevel;temperature;humidity
1776;BME280;885;42.626;23.200;2023-08-07T00:01:45;145289.22;;;16.22;100.00
1776;BME280;885;42.626;23.200;2023-08-07T00:04:12;145672.41;;;16.26;100.00
1776;BME280;885;42.626;23.200;2023-08-07T00:06:40;145666.50;;;16.24;100.00
1776;BME280;885;42.626;23.200;2023-08-07T00:09:06;146024.88;;;16.18;100.00
1776;BME280;885;42.626;23.200;2023-08-07T00:11:33;146402.19;;;16.20;100.00
1776;BME280;885;42.626;23.200;2023-08-07T00:14:00;146011.84;;;16.12;100.00
1776;BME280;885;42.626;23.200;2023-08-07T00:16:27;145615.69;;;16.02;100.00
1776;BME280;885;42.626;23.200;2023-08-07T00:18:53;145593.19;;;15.93;100.00
1776;BME280;885;42.626;23.200;2023-08-07T00:21:21;145966.78;;;15.93;100.00
1776;BME280;885;42.626;23.200;2023-08-07T00:23:49;146354.66;;;16.00;100.00
1776;BME280;885;42.626;23.200;2023-08-07T00:26:17;145947.81;;;15.85;100.00
1776;BME280;885;42.626;23.200;2023-08-07T00:28:44;146672.34;;;15.76;100.00
1776;BME280;885;42.626;23.200;2023-08-07T00:31:11;147431.53;;;15.82;100.00
1776;BME280;885;42.626;23.200;2023-08-07T00:33:37;147776.38;;;15.71;100.00
1776;BME280;885;42.626;23.200;2023-08-07T00:36:04;148537.03;;;15.77;100.00
1776;BME280;885;42.626;23.200;2023-08-07T00:38:31;148512.91;;;15.67;100.00
1776;BME280;885;42.626;23.200;2023-08-07T00:40:59;148512.91;;;15.67;100.00
1776;BME280;885;42.626;23.200;2023-08-07T00:43:26;148121.19;;;15.59;100.00
1776;BME280;885;42.626;23.200;2023-08-07T00:45:53;148085.03;;;15.44;100.00
1776;BME280;885;42.626;23.200;2023-08-07T00:48:20;148445.28;;;15.39;100.00
1776;BME280;885;42.626;23.200;2023-08-07T00:50:48;148430.81;;;15.33;100.00
1776;BME280;885;42.626;23.200;2023-08-07T00:53:15;149187.53;;;15.38;100.00
1776;BME280;885;42.626;23.200;2023-08-07T00:55:43;149564.78;;;15.40;100.00
1776;BME280;885;42.626;23.200;2023-08-07T00:58:11;148781.28;;;15.24;100.00
1776;BME280;885;42.626;23.200;2023-08-07T01:00:38;149107.47;;;15.05;100.00
1776;BME280;885;42.626;23.200;2023-08-07T01:03:07;150199.66;;;14.95;100.00
1776;BME280;885;42.626;23.200;2023-08-07T01:05:34;150957.63;;;15.00;100.00
1776;BME280;885;42.626;23.200;2023-08-07T01:08:01;152084.59;;;15.04;100.00
1776;BME280;885;42.626;23.200;2023-08-07T01:10:35;152058.59;;;14.94;100.00
1776;BME280;885;42.626;23.200;2023-08-07T01:13:14;152807.16;;;14.95;100.00
1776;BME280;885;42.626;23.200;2023-08-07T01:15:43;153184.59;;;14.97;100.00
1776;BME280;885;42.626;23.200;2023-08-07T01:18:11;153962.19;;;15.10;100.00
1776;BME280;885;42.626;23.200;2023-08-07T01:20:39;153967.19;;;15.12;100.00
1776;BME280;885;42.626;23.200;2023-08-07T01:23:07;153947.16;;;15.04;100.00
1776;BME280;885;42.626;23.200;2023-08-07T01:25:35;153933.38;;;14.99;100.00
1776;BME280;885;42.626;23.200;2023-08-07T01:28:09;154655.84;;;14.90;100.00
1776;BME280;885;42.626;23.200;2023-08-07T01:30:43;155776.28;;;14.91;100.00
1776;BME280;885;42.626;23.200;2023-08-07T01:33:16;156531.91;;;14.95;100.00
1776;BME280;885;42.626;23.200;2023-08-07T01:35:47;156899.56;;;14.93;100.00
1776;BME280;885;42.626;23.200;2023-08-07T01:38:17;156528.03;;;14.93;100.00
1776;BME280;885;42.626;23.200;2023-08-07T01:40:46;156514.03;;;14.88;100.00
1776;BME280;885;42.626;23.200;2023-08-07T01:43:14;156498.72;;;14.82;100.00
1776;BME280;885;42.626;23.200;2023-08-07T01:45:41;157222.34;;;14.73;100.00
1776;BME280;885;42.626;23.200;2023-08-07T01:48:07;157991.03;;;14.82;100.00
1776;BME280;885;42.626;23.200;2023-08-07T01:50:34;158758.75;;;14.91;100.00
1776;BME280;885;42.626;23.200;2023-08-07T01:53:01;158757.44;;;14.90;100.00
1776;BME280;885;42.626;23.200;2023-08-07T01:55:29;158763.94;;;14.93;100.00
1776;BME280;885;42.626;23.200;2023-08-07T01:57:56;158748.41;;;14.87;100.00
1776;BME280;885;42.626;23.200;2023-08-07T02:00:23;158762.63;;;14.92;100.00
1776;BME280;885;42.626;23.200;2023-08-07T02:02:50;157958.81;;;14.70;100.00
1776;BME280;885;42.626;23.200;2023-08-07T02:05:17;158331.56;;;14.70;100.00
1776;BME280;885;42.626;23.200;2023-08-07T02:07:44;158721.22;;;14.76;100.00
1776;BME280;885;42.626;23.200;2023-08-07T02:10:11;159117.41;;;14.85;100.00
1776;BME280;885;42.626;23.200;2023-08-07T02:12:39;159107.03;;;14.81;100.00
1776;BME280;885;42.626;23.200;2023-08-07T02:15:06;159097.94;;;14.78;100.00
1776;BME280;885;42.626;23.200;2023-08-07T02:17:33;159104.44;;;14.80;100.00
1776;BME280;885;42.626;23.200;2023-08-07T02:20:01;159100.53;;;14.79;100.00
1776;BME280;885;42.626;23.200;2023-08-07T02:22:28;158683.66;;;14.62;100.00
1776;BME280;885;42.626;23.200;2023-08-07T02:24:54;158664.22;;;14.54;100.00
1776;BME280;885;42.626;23.200;2023-08-07T02:27:21;159035.63;;;14.54;100.00
1776;BME280;885;42.626;23.200;2023-08-07T02:29:49;160154.00;;;14.54;100.00
1776;BME280;885;42.626;23.200;2023-08-07T02:32:17;160910.31;;;14.58;100.00
1776;BME280;885;42.626;23.200;2023-08-07T02:34:45;160905.06;;;14.56;100.00
1776;BME280;885;42.626;23.200;2023-08-07T02:37:12;160490.19;;;14.40;100.00
1776;BME280;885;42.626;23.200;2023-08-07T02:39:38;160492.84;;;14.41;100.00
1776;BME280;885;42.626;23.200;2023-08-07T02:42:06;160868.25;;;14.42;100.00
1776;BME280;885;42.626;23.200;2023-08-07T02:44:32;161260.88;;;14.49;100.00
1776;BME280;885;42.626;23.200;2023-08-07T02:47:01;160866.94;;;14.41;100.00
1776;BME280;885;42.626;23.200;2023-08-07T02:49:27;161217.44;;;14.32;100.00
1776;BME280;885;42.626;23.200;2023-08-07T02:51:54;161607.38;;;14.39;100.00
1776;BME280;885;42.626;23.200;2023-08-07T02:54:21;161984.28;;;14.41;100.00
1776;BME280;885;42.626;23.200;2023-08-07T02:56:47;162322.69;;;14.27;100.00
1776;BME280;885;42.626;23.200;2023-08-07T02:59:15;162716.88;;;14.36;100.00
1776;BME280;885;42.626;23.200;2023-08-07T03:01:41;163079.22;;;14.31;100.00
1776;BME280;885;42.626;23.200;2023-08-07T03:04:10;163486.94;;;14.45;100.00
1776;BME280;885;42.626;23.200;2023-08-07T03:06:36;163063.19;;;14.25;100.00
1776;BME280;885;42.626;23.200;2023-08-07T03:09:03;163442.81;;;14.28;100.00
1776;BME280;885;42.626;23.200;2023-08-07T03:11:30;164186.13;;;14.27;100.00
1776;BME280;885;42.626;23.200;2023-08-07T03:13:57;163801.06;;;14.22;100.00
1776;BME280;885;42.626;23.200;2023-08-07T03:16:23;164190.19;;;14.28;100.00
1776;BME280;885;42.626;23.200;2023-08-07T03:18:50;164563.25;;;14.28;100.00
1776;BME280;885;42.626;23.200;2023-08-07T03:21:18;164583.47;;;14.36;100.00
1776;BME280;885;42.626;23.200;2023-08-07T03:23:45;164603.63;;;14.44;100.00
1776;BME280;885;42.626;23.200;2023-08-07T03:26:12;164956.63;;;14.36;100.00
1776;BME280;885;42.626;23.200;2023-08-07T03:28:39;164986.28;;;14.47;100.00
1776;BME280;885;42.626;23.200;2023-08-07T03:31:06;164984.94;;;14.47;100.00
1776;BME280;885;42.626;23.200;2023-08-07T03:33:33;165358.19;;;14.47;100.00
1776;BME280;885;42.626;23.200;2023-08-07T03:36:00;165352.78;;;14.45;100.00
1776;BME280;885;42.626;23.200;2023-08-07T03:38:28;165344.66;;;14.42;100.00
1776;BME280;885;42.626;23.200;2023-08-07T03:40:54;164974.16;;;14.43;100.00
1776;BME280;885;42.626;23.200;2023-08-07T03:43:21;164990.31;;;14.49;100.00
1776;BME280;885;42.626;23.200;2023-08-07T03:45:54;164615.75;;;14.48;100.00
1776;BME280;885;42.626;23.200;2023-08-07T03:48:20;164218.38;;;14.39;100.00
1776;BME280;885;42.626;23.200;2023-08-07T03:50:47;163841.28;;;14.38;100.00
1776;BME280;885;42.626;23.200;2023-08-07T03:53:14;163841.28;;;14.38;100.00
1776;BME280;885;42.626;23.200;2023-08-07T03:55:42;163426.78;;;14.22;100.00
1776;BME280;885;42.626;23.200;2023-08-07T03:58:10;163803.75;;;14.23;100.00
1776;BME280;885;42.626;23.200;2023-08-07T04:00:37;163825.22;;;14.31;100.00
1776;BME280;885;42.626;23.200;2023-08-07T04:03:03;163806.41;;;14.24;100.00
1776;BME280;885;42.626;23.200;2023-08-07T04:05:33;163806.41;;;14.24;100.00
1776;BME280;885;42.626;23.200;2023-08-07T04:07:59;164194.25;;;14.30;100.00
1776;BME280;885;42.626;23.200;2023-08-07T04:10:26;164209.00;;;14.36;100.00
1776;BME280;885;42.626;23.200;2023-08-07T04:12:54;163811.75;;;14.26;100.00
1776;BME280;885;42.626;23.200;2023-08-07T04:15:21;164171.41;;;14.21;100.00
1776;BME280;885;42.626;23.200;2023-08-07T04:17:47;164171.41;;;14.21;100.00
1776;BME280;885;42.626;23.200;2023-08-07T04:20:14;164928.25;;;14.25;100.00
1776;BME280;885;42.626;23.200;2023-08-07T04:22:41;164941.81;;;14.30;100.00
1776;BME280;885;42.626;23.200;2023-08-07T04:25:09;165340.59;;;14.40;100.00
1776;BME280;885;42.626;23.200;2023-08-07T04:27:35;165362.22;;;14.48;100.00
1776;BME280;885;42.626;23.200;2023-08-07T04:30:06;165378.44;;;14.54;100.00
1776;BME280;885;42.626;23.200;2023-08-07T04:32:32;165396.00;;;14.61;100.00
1776;BME280;885;42.626;23.200;2023-08-07T04:34:59;164997.06;;;14.51;100.00
1776;BME280;885;42.626;23.200;2023-08-07T04:37:26;165006.50;;;14.55;100.00
1776;BME280;885;42.626;23.200;2023-08-07T04:39:55;165413.59;;;14.67;100.00
1776;BME280;885;42.626;23.200;2023-08-07T04:42:22;165421.72;;;14.70;100.00
1776;BME280;885;42.626;23.200;2023-08-07T04:44:49;165447.38;;;14.80;100.00
1776;BME280;885;42.626;23.200;2023-08-07T04:47:17;165463.59;;;14.86;100.00
1776;BME280;885;42.626;23.200;2023-08-07T04:49:44;165091.47;;;14.86;100.00
1776;BME280;885;42.626;23.200;2023-08-07T04:52:10;165482.53;;;14.93;100.00
1776;BME280;885;42.626;23.200;2023-08-07T04:54:37;165099.53;;;14.89;100.00
1776;BME280;885;42.626;23.200;2023-08-07T04:57:04;165104.91;;;14.91;100.00
1776;BME280;885;42.626;23.200;2023-08-07T04:59:31;165076.59;;;14.81;100.00
1776;BME280;885;42.626;23.200;2023-08-07T05:01:57;165071.19;;;14.79;100.00
1776;BME280;885;42.626;23.200;2023-08-07T05:04:26;165079.31;;;14.82;100.00
1776;BME280;885;42.626;23.200;2023-08-07T05:06:52;165466.31;;;14.87;100.00
1776;BME280;885;42.626;23.200;2023-08-07T05:09:19;165843.91;;;14.88;100.00
1776;BME280;885;42.626;23.200;2023-08-07T05:11:46;165865.56;;;14.96;100.00
1776;BME280;885;42.626;23.200;2023-08-07T05:14:13;165896.78;;;15.08;100.00
1776;BME280;885;42.626;23.200;2023-08-07T05:16:40;165892.69;;;15.06;100.00
1776;BME280;885;42.626;23.200;2023-08-07T05:19:07;165902.19;;;15.10;100.00
1776;BME280;885;42.626;23.200;2023-08-07T05:21:35;166303.06;;;15.20;100.00
1776;BME280;885;42.626;23.200;2023-08-07T05:24:02;166330.22;;;15.30;100.00
1776;BME280;885;42.626;23.200;2023-08-07T05:26:30;166341.09;;;15.34;100.00
1776;BME280;885;42.626;23.200;2023-08-07T05:28:56;166369.69;;;15.45;100.00
1776;BME280;885;42.626;23.200;2023-08-07T05:31:24;165994.38;;;15.44;100.00
1776;BME280;885;42.626;23.200;2023-08-07T05:33:51;166012.00;;;15.51;100.00
1776;BME280;885;42.626;23.200;2023-08-07T05:36:18;166409.09;;;15.59;100.00
1776;BME280;885;42.626;23.200;2023-08-07T05:38:46;166434.88;;;15.69;100.00
1776;BME280;885;42.626;23.200;2023-08-07T05:41:13;166447.13;;;15.73;100.00
1776;BME280;885;42.626;23.200;2023-08-07T05:43:39;166078.44;;;15.75;100.00
1776;BME280;885;42.626;23.200;2023-08-07T05:46:08;166116.44;;;15.89;100.00
1776;BME280;885;42.626;23.200;2023-08-07T05:48:34;166170.66;;;16.10;100.00
1776;BME280;885;42.626;23.200;2023-08-07T05:51:01;166231.69;;;16.32;100.00
1776;BME280;885;42.626;23.200;2023-08-07T05:53:28;165958.78;;;16.70;100.00
1776;BME280;885;42.626;23.200;2023-08-07T05:55:57;166103.63;;;17.24;100.00
1776;BME280;885;42.626;23.200;2023-08-07T05:58:23;165796.19;;;17.49;100.00
1776;BME280;885;42.626;23.200;2023-08-07T06:00:50;165454.81;;;17.62;100.00
1776;BME280;885;42.626;23.200;2023-08-07T06:03:17;165562.69;;;18.02;100.00
1776;BME280;885;42.626;23.200;2023-08-07T06:05:44;165736.72;;;18.67;98.59
1776;BME280;885;42.626;23.200;2023-08-07T06:08:10;165482.06;;;19.12;95.91
1776;BME280;885;42.626;23.200;2023-08-07T06:10:37;164760.75;;;19.24;93.75
1776;BME280;885;42.626;23.200;2023-08-07T06:13:05;164011.28;;;19.25;90.26
1776;BME280;885;42.626;23.200;2023-08-07T06:15:42;163597.97;;;19.11;91.80
1776;BME280;885;42.626;23.200;2023-08-07T06:18:09;162396.44;;;18.82;90.94
1776;BME280;885;42.626;23.200;2023-08-07T06:20:35;161596.59;;;18.64;90.55
1776;BME280;885;42.626;23.200;2023-08-07T06:23:02;161584.75;;;18.59;91.88
1776;BME280;885;42.626;23.200;2023-08-07T06:25:29;161582.09;;;18.58;91.95
1776;BME280;885;42.626;23.200;2023-08-07T06:27:55;159704.16;;;18.58;83.83
1776;BME280;885;42.626;23.200;2023-08-07T06:30:24;157791.09;;;18.43;79.26
1776;BME280;885;42.626;23.200;2023-08-07T06:32:50;157405.84;;;18.39;80.03
1776;BME280;885;42.626;23.200;2023-08-07T06:35:17;156589.91;;;18.13;80.55
1776;BME280;885;42.626;23.200;2023-08-07T06:37:44;157028.41;;;18.38;81.26
1776;BME280;885;42.626;23.200;2023-08-07T06:40:11;157878.31;;;18.77;82.03
1776;BME280;885;42.626;23.200;2023-08-07T06:42:38;157916.81;;;18.92;80.76
1776;BME280;885;42.626;23.200;2023-08-07T06:45:06;157097.34;;;18.65;80.58
1776;BME280;885;42.626;23.200;2023-08-07T06:47:34;155947.00;;;18.55;78.72
1776;BME280;885;42.626;23.200;2023-08-07T06:50:00;156346.03;;;18.65;80.61
1776;BME280;885;42.626;23.200;2023-08-07T06:52:27;157551.75;;;18.96;81.68
1776;BME280;885;42.626;23.200;2023-08-07T06:54:54;158508.28;;;19.77;78.04
1776;BME280;885;42.626;23.200;2023-08-07T06:57:21;158615.06;;;20.19;75.77
1776;BME280;885;42.626;23.200;2023-08-07T06:59:50;159439.84;;;20.47;76.51
1776;BME280;885;42.626;23.200;2023-08-07T07:02:17;158301.91;;;20.43;72.94
1776;BME280;885;42.626;23.200;2023-08-07T07:04:45;157495.81;;;20.22;73.43
1776;BME280;885;42.626;23.200;2023-08-07T07:07:12;155535.19;;;19.90;70.73
1776;BME280;885;42.626;23.200;2023-08-07T07:09:38;155515.00;;;19.82;72.81
1776;BME280;885;42.626;23.200;2023-08-07T07:12:06;155144.44;;;19.84;71.67
1776;BME280;885;42.626;23.200;2023-08-07T07:14:33;155575.59;;;20.06;72.44
1776;BME280;885;42.626;23.200;2023-08-07T07:17:00;155222.44;;;20.15;70.03
1776;BME280;885;42.626;23.200;2023-08-07T07:19:26;153152.56;;;19.38;72.10
1776;BME280;885;42.626;23.200;2023-08-07T07:21:55;153922.91;;;19.46;74.52
1776;BME280;885;42.626;23.200;2023-08-07T07:24:21;155146.97;;;19.85;75.35
1776;BME280;885;42.626;23.200;2023-08-07T07:26:48;155157.03;;;19.89;74.57
1776;BME280;885;42.626;23.200;2023-08-07T07:29:16;154400.81;;;19.87;71.79
1776;BME280;885;42.626;23.200;2023-08-07T07:31:43;154831.59;;;20.09;72.67
1776;BME280;885;42.626;23.200;2023-08-07T07:34:10;153667.19;;;19.94;70.21
1776;BME280;885;42.626;23.200;2023-08-07T07:36:37;153643.53;;;19.85;72.10
1776;BME280;885;42.626;23.200;2023-08-07T07:39:05;152365.25;;;19.23;73.42
1776;BME280;885;42.626;23.200;2023-08-07T07:41:32;153155.06;;;19.39;75.87
1776;BME280;885;42.626;23.200;2023-08-07T07:43:58;154365.78;;;19.73;77.46
1776;BME280;885;42.626;23.200;2023-08-07T07:46:27;154026.53;;;19.88;73.09
1776;BME280;885;42.626;23.200;2023-08-07T07:48:54;154410.84;;;19.91;75.70
1776;BME280;885;42.626;23.200;2023-08-07T07:51:21;154454.63;;;20.09;74.35
1776;BME280;885;42.626;23.200;2023-08-07T07:53:48;154082.72;;;20.10;71.80
1776;BME280;885;42.626;23.200;2023-08-07T07:56:16;154106.47;;;20.20;71.33
1776;BME280;885;42.626;23.200;2023-08-07T07:58:44;154526.06;;;20.37;71.46
1776;BME280;885;42.626;23.200;2023-08-07T08:01:11;154145.22;;;20.35;70.76
1776;BME280;885;42.626;23.200;2023-08-07T08:03:38;154163.94;;;20.43;69.68
1776;BME280;885;42.626;23.200;2023-08-07T08:06:06;153373.75;;;20.27;70.22
1776;BME280;885;42.626;23.200;2023-08-07T08:08:32;153781.84;;;20.40;70.50
1776;BME280;885;42.626;23.200;2023-08-07T08:10:59;154581.16;;;20.59;70.85
1776;BME280;885;42.626;23.200;2023-08-07T08:13:27;155027.53;;;20.88;71.49
1776;BME280;885;42.626;23.200;2023-08-07T08:15:54;155067.75;;;21.04;69.41
1776;BME280;885;42.626;23.200;2023-08-07T08:18:21;153475.66;;;20.69;67.37
1776;BME280;885;42.626;23.200;2023-08-07T08:20:47;153119.56;;;20.77;66.43
1776;BME280;885;42.626;23.200;2023-08-07T08:23:14;153535.31;;;20.93;66.71
1776;BME280;885;42.626;23.200;2023-08-07T08:25:41;154350.16;;;21.18;67.23
1776;BME280;885;42.626;23.200;2023-08-07T08:28:08;155524.69;;;21.36;70.56
1776;BME280;885;42.626;23.200;2023-08-07T08:30:36;154026.19;;;21.39;64.21
1776;BME280;885;42.626;23.200;2023-08-07T08:33:03;154440.16;;;21.54;66.22
1776;BME280;885;42.626;23.200;2023-08-07T08:35:31;154870.66;;;21.76;65.67
1776;BME280;885;42.626;23.200;2023-08-07T08:37:57;151372.31;;;21.31;60.95
1776;BME280;885;42.626;23.200;2023-08-07T08:40:24;152189.94;;;21.58;62.17
1776;BME280;885;42.626;23.200;2023-08-07T08:42:52;153402.44;;;21.91;62.85
1776;BME280;885;42.626;23.200;2023-08-07T08:45:25;153851.31;;;22.21;62.20
1776;BME280;885;42.626;23.200;2023-08-07T08:47:55;153916.06;;;22.47;61.39
1776;BME280;885;42.626;23.200;2023-08-07T08:50:24;153568.81;;;22.59;60.65
1776;BME280;885;42.626;23.200;2023-08-07T08:52:53;153204.09;;;22.64;60.84
1776;BME280;885;42.626;23.200;2023-08-07T08:55:22;150824.88;;;22.16;59.15
1776;BME280;885;42.626;23.200;2023-08-07T08:57:49;151629.63;;;22.37;60.95
1776;BME280;885;42.626;23.200;2023-08-07T09:00:16;150054.72;;;22.08;58.28
1776;BME280;885;42.626;23.200;2023-08-07T09:02:46;150872.38;;;22.35;60.19
1776;BME280;885;42.626;23.200;2023-08-07T09:05:16;151706.91;;;22.68;59.91
1776;BME280;885;42.626;23.200;2023-08-07T09:07:43;152531.22;;;22.97;59.52
1776;BME280;885;42.626;23.200;2023-08-07T09:10:12;152201.88;;;23.17;57.94
1776;BME280;885;42.626;23.200;2023-08-07T09:12:40;151413.00;;;23.03;56.99
1776;BME280;885;42.626;23.200;2023-08-07T09:15:08;151801.25;;;23.07;59.36
1776;BME280;885;42.626;23.200;2023-08-07T09:17:39;152637.22;;;23.40;59.51
1776;BME280;885;42.626;23.200;2023-08-07T09:20:07;152696.44;;;23.64;57.50
1776;BME280;885;42.626;23.200;2023-08-07T09:22:38;151950.91;;;23.68;56.45
1776;BME280;885;42.626;23.200;2023-08-07T09:25:08;152744.47;;;23.84;58.49
1776;BME280;885;42.626;23.200;2023-08-07T09:27:36;150361.69;;;23.36;56.34
1776;BME280;885;42.626;23.200;2023-08-07T09:30:05;150769.44;;;23.48;56.44
1776;BME280;885;42.626;23.200;2023-08-07T09:32:33;150825.41;;;23.72;56.52
1776;BME280;885;42.626;23.200;2023-08-07T09:35:02;148886.41;;;23.50;54.17
1776;BME280;885;42.626;23.200;2023-08-07T09:37:30;149714.63;;;23.81;55.25
1776;BME280;885;42.626;23.200;2023-08-07T09:40:00;149359.97;;;23.90;54.40
1776;BME280;885;42.626;23.200;2023-08-07T09:42:30;147713.06;;;23.32;55.48
1776;BME280;885;42.626;23.200;2023-08-07T09:44:58;149315.44;;;23.72;56.80
1776;BME280;885;42.626;23.200;2023-08-07T09:47:24;148938.00;;;23.72;56.03
1776;BME280;885;42.626;23.200;2023-08-07T09:49:54;146554.88;;;23.21;54.19
1776;BME280;885;42.626;23.200;2023-08-07T09:52:20;148136.72;;;23.52;56.67
1776;BME280;885;42.626;23.200;2023-08-07T09:54:47;146996.97;;;23.48;54.08
1776;BME280;885;42.626;23.200;2023-08-07T09:57:52;148585.81;;;23.82;55.35
1776;BME280;885;42.626;23.200;2023-08-07T10:00:41;148648.19;;;24.08;53.91
1776;BME280;885;42.626;23.200;2023-08-07T10:03:08;149475.69;;;24.38;54.28
1776;BME280;885;42.626;23.200;2023-08-07T10:05:35;148746.44;;;24.50;51.37
1776;BME280;885;42.626;23.200;2023-08-07T10:08:02;146452.84;;;24.38;48.67
1776;BME280;885;42.626;23.200;2023-08-07T10:10:31;142931.78;;;23.84;48.65
1776;BME280;885;42.626;23.200;2023-08-07T10:13:00;144120.72;;;24.09;51.45
1776;BME280;885;42.626;23.200;2023-08-07T10:15:28;144961.50;;;24.46;50.94
1776;BME280;885;42.626;23.200;2023-08-07T10:17:55;146935.72;;;24.83;53.05
1776;BME280;885;42.626;23.200;2023-08-07T10:20:24;147010.28;;;25.14;50.08
1776;BME280;885;42.626;23.200;2023-08-07T10:22:53;146251.84;;;25.13;48.92
1776;BME280;885;42.626;23.200;2023-08-07T10:25:22;146268.28;;;25.20;49.81
1776;BME280;885;42.626;23.200;2023-08-07T10:27:53;147435.81;;;25.35;51.56
1776;BME280;885;42.626;23.200;2023-08-07T10:30:24;145021.00;;;24.72;51.51
1776;BME280;885;42.626;23.200;2023-08-07T10:32:52;144587.53;;;24.48;53.66
1776;BME280;885;42.626;23.200;2023-08-07T10:35:24;144616.63;;;24.60;53.17
1776;BME280;885;42.626;23.200;2023-08-07T10:37:51;141801.19;;;23.84;52.67
1776;BME280;885;42.626;23.200;2023-08-07T10:40:19;143758.59;;;24.15;55.21
1776;BME280;885;42.626;23.200;2023-08-07T10:42:52;146202.41;;;24.92;54.94
1776;BME280;885;42.626;23.200;2023-08-07T10:45:19;145897.31;;;25.23;51.09
1776;BME280;885;42.626;23.200;2023-08-07T10:48:07;143870.88;;;24.64;51.48
1776;BME280;885;42.626;23.200;2023-08-07T10:50:35;143819.97;;;24.42;54.65
1776;BME280;885;42.626;23.200;2023-08-07T10:53:18;145824.56;;;24.92;55.09
1776;BME280;885;42.626;23.200;2023-08-07T10:55:46;147054.03;;;25.33;54.47
1776;BME280;885;42.626;23.200;2023-08-07T10:58:23;148317.69;;;25.87;52.22
1776;BME280;885;42.626;23.200;2023-08-07T11:00:51;147196.13;;;25.93;49.72
1776;BME280;885;42.626;23.200;2023-08-07T11:03:27;148384.59;;;26.16;50.41
1776;BME280;885;42.626;23.200;2023-08-07T11:05:57;147170.09;;;25.82;51.48
1776;BME280;885;42.626;23.200;2023-08-07T11:08:24;147609.19;;;26.08;50.50
1776;BME280;885;42.626;23.200;2023-08-07T11:10:51;146849.44;;;26.07;48.90
1776;BME280;885;42.626;23.200;2023-08-07T11:13:18;145598.91;;;25.58;50.44
1776;BME280;885;42.626;23.200;2023-08-07T11:15:46;147611.56;;;26.09;51.94
1776;BME280;885;42.626;23.200;2023-08-07T11:18:14;148486.03;;;26.58;48.96
1776;BME280;885;42.626;23.200;2023-08-07T11:20:43;148080.78;;;26.47;49.44
1776;BME280;885;42.626;23.200;2023-08-07T11:23:11;145251.09;;;25.71;50.27
1776;BME280;885;42.626;23.200;2023-08-07T11:25:38;146018.28;;;25.75;51.71
1776;BME280;885;42.626;23.200;2023-08-07T11:28:05;145634.06;;;25.73;51.52
1776;BME280;885;42.626;23.200;2023-08-07T11:30:33;147237.63;;;26.11;52.21
1776;BME280;885;42.626;23.200;2023-08-07T11:33:00;146101.69;;;26.11;48.60
1776;BME280;885;42.626;23.200;2023-08-07T11:35:27;145678.56;;;25.92;50.50
1776;BME280;885;42.626;23.200;2023-08-07T11:37:56;146496.81;;;26.18;50.85
1776;BME280;885;42.626;23.200;2023-08-07T11:40:23;143269.16;;;25.31;50.62
1776;BME280;885;42.626;23.200;2023-08-07T11:42:50;143282.97;;;25.37;50.21
1776;BME280;885;42.626;23.200;2023-08-07T11:45:17;143680.56;;;25.46;50.94
1776;BME280;885;42.626;23.200;2023-08-07T11:47:43;144863.53;;;25.67;51.31
1776;BME280;885;42.626;23.200;2023-08-07T11:50:11;146481.50;;;26.12;52.15
1776;BME280;885;42.626;23.200;2023-08-07T11:52:37;147711.31;;;26.51;51.50
1776;BME280;885;42.626;23.200;2023-08-07T11:55:07;145357.44;;;26.17;49.27
1776;BME280;885;42.626;23.200;2023-08-07T11:57:38;142100.41;;;25.15;50.69
1776;BME280;885;42.626;23.200;2023-08-07T12:00:07;143251.91;;;25.23;53.80
1776;BME280;885;42.626;23.200;2023-08-07T12:02:41;145234.78;;;25.64;54.42
1776;BME280;885;42.626;23.200;2023-08-07T12:05:08;146085.19;;;26.04;52.69
1776;BME280;885;42.626;23.200;2023-08-07T12:07:36;147313.41;;;26.43;52.92
1776;BME280;885;42.626;23.200;2023-08-07T12:10:04;148160.59;;;26.81;51.31
1776;BME280;885;42.626;23.200;2023-08-07T12:12:34;149757.09;;;27.14;53.04
1776;BME280;885;42.626;23.200;2023-08-07T12:15:02;149804.03;;;27.34;51.29
1776;BME280;885;42.626;23.200;2023-08-07T12:17:31;146574.53;;;26.51;50.13
1776;BME280;885;42.626;23.200;2023-08-07T12:19:58;145745.38;;;26.21;51.05
1776;BME280;885;42.626;23.200;2023-08-07T12:22:27;144555.06;;;25.97;51.30
1776;BME280;885;42.626;23.200;2023-08-07T12:24:54;144926.44;;;25.94;52.32
1776;BME280;885;42.626;23.200;2023-08-07T12:27:21;145325.88;;;26.03;53.32
1776;BME280;885;42.626;23.200;2023-08-07T12:29:49;145332.84;;;26.06;52.31
1776;BME280;885;42.626;23.200;2023-08-07T12:32:15;144939.22;;;25.99;51.73
1776;BME280;885;42.626;23.200;2023-08-07T12:34:42;145703.16;;;26.02;54.42
1776;BME280;885;42.626;23.200;2023-08-07T12:37:09;144931.09;;;25.96;53.06
1776;BME280;885;42.626;23.200;2023-08-07T12:39:36;145296.66;;;25.90;54.93
1776;BME280;885;42.626;23.200;2023-08-07T12:42:03;145666.84;;;25.87;56.71
1776;BME280;885;42.626;23.200;2023-08-07T12:44:30;145661.03;;;25.84;56.46
1776;BME280;885;42.626;23.200;2023-08-07T12:46:58;145286.16;;;25.86;55.23
1776;BME280;885;42.626;23.200;2023-08-07T12:49:25;145232.41;;;25.63;57.33
1776;BME280;885;42.626;23.200;2023-08-07T12:51:52;145206.72;;;25.52;58.03
1776;BME280;885;42.626;23.200;2023-08-07T12:54:21;145211.38;;;25.54;58.32
1776;BME280;885;42.626;23.200;2023-08-07T12:56:47;145587.25;;;25.53;59.83
1776;BME280;885;42.626;23.200;2023-08-07T12:59:14;145198.56;;;25.48;59.01
1776;BME280;885;42.626;23.200;2023-08-07T13:01:41;145176.34;;;25.39;60.53
1776;BME280;885;42.626;23.200;2023-08-07T13:04:09;144763.34;;;25.23;60.68
1776;BME280;885;42.626;23.200;2023-08-07T13:06:39;144730.72;;;25.09;63.12
1776;BME280;885;42.626;23.200;2023-08-07T13:09:06;143947.31;;;24.97;62.44